Portada
METAR-TAF:

METAR-TAF

Aeroports :

Aeroport de Kangerlussuaq

Kangerlussuaq, Grenlàndia

latitud: 67-01N, longitud: 050-42W, altitud: 50 m

Observació

L'informe es va fer fa 47 minuts, a les 04:50 UTC
Vent 13 kt del Sud-Est
Temperatura 9°C
Humitat 46%
Pressió 997 hPa
Visibilitat 10 km o més

METAR: BGSF 210450Z AUTO 14013KT 9999NDV SCT065/// BKN180/// 09/M02 Q0997

Hora: 03:37 (05:37 UTC)

Pronòstic

L'informe es va fer fa 37 minuts, a les 05:00 UTC
Pronòstic vàlid del 21 a les 06 UTC al 22 a les 01 UTC
Vent 10 kt del Sud-Est
Visibilitat 10 km o més
Núvols disperses a una alçada de 4000 ft
Cel ennuvolat a una alçada de 10000 ft
Temporalment
l' 21 a les 06 UTC al 21 a les 15 UTC
Vent 15 kt del Sud-Est amb ràfegues de 25 kt
Cel ennuvolat a una alçada de 4000 ft
pluja
Temporalment
l' 21 a les 15 UTC al 21 a les 18 UTC
Cel ennuvolat a una alçada de 7000 ft

TAF: BGSF 210500Z 2106/2201 14010KT 9999 SCT040 BKN100 TEMPO 2106/2115 14015G25KT -RA BKN040 TEMPO 2115/2118 BKN070

Observacions i pronòstics meteorològics de més de 4000 aeroports (METAR i TAF).

Les estacions disponibles són els punts grocs i vermells al mapa.

Posi el ratolí al punt desitjat per veure el nom de l'estació.

Feu clic per veure les observacions i els pronòstics meteorològics.

Per canviar el mapa: feu clic els botons verds amb una creu de color negre per apropar; al botó verd amb un guió per allunyar la imatge; o en les fletxes verdes per a mapes adjacents.


METAR-TAF: